Cleveland, Ohio
Traffic Map
Current Weather Conditions
Cleveland, Ohio
Broken Clouds
Broken Clouds
45°
Feels Like: 38°
Wind Chill: 38° Ceiling: 2900
Heat Index: 45° Visibility: 10mi
Dew Point: 41° Wind: 17mph
Humidity: 86% Direction: 280° (W)
Pressure: 29.53in Gusts: 0mph
Raw Report DataKBKL 250853Z 28015KT 10SM SCT023 BKN029 BKN085 07/05 A2953 RMK AO2 SLP998 60011 T00720050 53007
Traffic Incident Summary
Active as of:
Severity:
Category:
InformationThere was an issue retrieving the traffic information for this location. Please try a different location or try again shortly.
Advertisements
Track Severe Weather on mobile